Time;durP1;ratioP1;P1;durP2;ratioP2;P2;SDS_P1;SDS_P2;PMS_P1;PMS_P2;Temp;Humidity;BMP_temperature;BMP_pressure;BME280_temperature;BME280_humidity;BME280_pressure;Samples;Min_cycle;Max_cycle;Signal;HPM_P1;HPM_P2
2021/07/25 00:01:49;;;;;;;8.68;7.68;;;23.70;61.20;;;;;;4959114;28;20038;-85
2021/07/25 00:04:15;;;;;;;8.90;7.68;;;23.70;61.20;;;;;;4976719;28;20031;-86
2021/07/25 00:06:41;;;;;;;8.40;7.25;;;23.70;61.20;;;;;;4958976;28;20029;-85
2021/07/25 00:09:07;;;;;;;8.70;7.20;;;23.70;61.30;;;;;;4958833;28;20365;-85
2021/07/25 00:11:33;;;;;;;10.05;8.00;;;23.70;61.30;;;;;;4974907;28;20027;-84
2021/07/25 00:14:03;;;;;;;9.40;7.82;;;23.70;61.30;;;;;;4959079;28;20554;-85
2021/07/25 00:16:30;;;;;;;8.80;7.32;;;23.70;61.30;;;;;;4959447;28;20518;-85
2021/07/25 00:18:56;;;;;;;9.52;7.88;;;23.60;61.40;;;;;;4974659;28;20050;-85
2021/07/25 00:21:23;;;;;;;9.65;8.60;;;23.60;61.40;;;;;;4958844;28;20167;-85
2021/07/25 00:23:51;;;;;;;8.90;7.80;;;23.60;61.40;;;;;;4974853;28;20034;-85
2021/07/25 00:26:18;;;;;;;8.70;7.80;;;23.60;61.50;;;;;;4976166;28;20035;-86
2021/07/25 00:28:45;;;;;;;8.82;7.57;;;23.60;62.20;;;;;;4958606;28;20445;-85
2021/07/25 00:31:11;;;;;;;9.68;8.43;;;23.50;61.60;;;;;;4974485;28;20360;-84
2021/07/25 00:33:37;;;;;;;9.73;8.68;;;23.50;61.50;;;;;;4974097;28;20078;-85
2021/07/25 00:36:08;;;;;;;8.93;7.72;;;23.50;61.60;;;;;;4974416;28;20038;-85
2021/07/25 00:38:34;;;;;;;9.02;7.75;;;23.50;61.70;;;;;;4958472;28;20031;-86
2021/07/25 00:41:15;;;;;;;9.23;7.88;;;23.50;61.70;;;;;;4958288;28;20029;-85
2021/07/25 00:43:44;;;;;;;10.60;8.07;;;23.50;61.90;;;;;;4958506;28;20094;-85
2021/07/25 00:46:13;;;;;;;9.55;7.82;;;23.40;61.70;;;;;;4975408;28;20530;-85
2021/07/25 00:48:39;;;;;;;8.40;7.50;;;23.50;61.90;;;;;;4957892;28;20081;-86
2021/07/25 00:51:06;;;;;;;9.82;7.93;;;23.40;61.90;;;;;;4975026;28;20412;-85
2021/07/25 00:53:39;;;;;;;8.90;7.47;;;23.40;61.90;;;;;;4958344;28;20114;-85
2021/07/25 00:56:09;;;;;;;9.13;7.18;;;23.40;61.90;;;;;;4942406;28;20058;-84
2021/07/25 00:58:42;;;;;;;9.98;7.80;;;23.40;61.90;;;;;;4958094;28;20050;-86
2021/07/25 01:01:10;;;;;;;8.73;7.53;;;23.30;62.00;;;;;;4958098;28;20491;-85
2021/07/25 01:03:56;;;;;;;8.32;7.15;;;23.40;62.00;;;;;;4958432;28;20055;-86
2021/07/25 01:06:27;;;;;;;9.60;7.18;;;23.30;62.10;;;;;;4979781;28;20031;-85
2021/07/25 01:09:03;;;;;;;8.80;7.43;;;23.30;62.00;;;;;;4962598;28;20022;-86
2021/07/25 01:11:40;;;;;;;8.50;7.60;;;23.30;62.10;;;;;;4979005;28;20038;-86
2021/07/25 01:14:07;;;;;;;9.32;8.10;;;23.20;62.10;;;;;;4979255;28;20034;-85
2021/07/25 01:16:33;;;;;;;8.50;7.60;;;23.30;62.10;;;;;;4962508;28;20027;-85
2021/07/25 01:19:00;;;;;;;8.95;7.95;;;23.20;62.10;;;;;;4961613;28;20516;-85
2021/07/25 01:21:25;;;;;;;9.38;7.93;;;23.20;62.80;;;;;;4961830;28;20093;-85
2021/07/25 01:23:52;;;;;;;9.05;7.88;;;23.20;62.10;;;;;;4962609;28;20448;-86
2021/07/25 01:26:26;;;;;;;8.48;7.55;;;23.20;62.20;;;;;;4961813;28;20085;-86
2021/07/25 01:28:53;;;;;;;;;;;23.20;62.20;;;;;;4962282;28;20388;-87
2021/07/25 01:31:38;;;;;;;7.60;6.28;;;23.20;62.00;;;;;;4977939;28;19917;-85
2021/07/25 01:34:05;;;;;;;8.98;7.38;;;23.10;62.20;;;;;;4978479;28;20054;-85
2021/07/25 01:36:33;;;;;;;8.70;7.05;;;23.10;62.10;;;;;;4961306;28;20058;-85
2021/07/25 01:38:59;;;;;;;9.10;7.97;;;23.10;62.20;;;;;;4961508;28;20046;-86
2021/07/25 01:41:25;;;;;;;9.45;7.88;;;23.10;62.30;;;;;;4977493;28;20030;-85
2021/07/25 01:43:52;;;;;;;9.52;7.95;;;23.10;62.30;;;;;;4977244;28;20038;-85
2021/07/25 01:46:18;;;;;;;8.60;7.43;;;23.10;62.40;;;;;;4961390;28;20166;-86
2021/07/25 01:48:44;;;;;;;10.75;8.10;;;23.10;62.40;;;;;;4977688;28;20492;-86
2021/07/25 01:51:12;;;;;;;9.57;7.85;;;23.10;62.40;;;;;;4977129;28;20129;-86
2021/07/25 01:53:38;;;;;;;11.18;8.15;;;23.00;62.40;;;;;;4961211;28;20041;-84
2021/07/25 01:56:04;;;;;;;10.35;8.00;;;23.00;62.40;;;;;;4961176;28;20022;-86
2021/07/25 01:58:29;;;;;;;8.90;7.93;;;23.00;62.50;;;;;;4978390;28;20374;-86
2021/07/25 02:00:55;;;;;;;8.70;7.72;;;23.00;62.50;;;;;;4961249;28;20034;-85
2021/07/25 02:03:26;;;;;;;8.70;7.75;;;23.00;62.50;;;;;;4977425;28;20502;-87
2021/07/25 02:05:53;;;;;;;9.90;8.27;;;23.00;62.60;;;;;;4961229;28;20480;-85
2021/07/25 02:08:19;;;;;;;9.50;8.15;;;23.00;62.60;;;;;;4960996;28;20033;-85
2021/07/25 02:10:46;;;;;;;9.48;8.05;;;22.90;62.60;;;;;;4945062;28;20094;-86
2021/07/25 02:13:13;;;;;;;9.13;8.18;;;22.90;62.60;;;;;;4944725;28;20023;-85
2021/07/25 02:15:39;;;;;;;9.60;8.60;;;22.90;62.50;;;;;;4960385;28;20097;-85
2021/07/25 02:18:08;;;;;;;9.20;8.15;;;22.90;62.60;;;;;;4960684;28;20031;-85
2021/07/25 02:20:34;;;;;;;8.95;7.97;;;22.90;62.60;;;;;;4978004;28;20034;-86
2021/07/25 02:23:00;;;;;;;9.98;8.70;;;22.90;62.60;;;;;;4960896;28;20026;-86
2021/07/25 02:25:26;;;;;;;9.35;8.13;;;22.90;62.60;;;;;;4961024;28;20033;-86
2021/07/25 02:27:52;;;;;;;10.27;7.85;;;22.90;62.70;;;;;;4960412;28;20384;-86
2021/07/25 02:30:18;;;;;;;8.98;7.78;;;22.90;62.70;;;;;;4961079;28;20027;-86
2021/07/25 02:32:44;;;;;;;9.45;8.27;;;22.80;62.60;;;;;;4960436;28;20085;-85
2021/07/25 02:35:10;;;;;;;9.88;8.68;;;22.80;62.70;;;;;;4960695;28;20101;-86
2021/07/25 02:37:36;;;;;;;9.80;7.80;;;22.80;62.70;;;;;;4960569;28;20035;-87
2021/07/25 02:40:03;;;;;;;9.65;8.10;;;22.80;62.70;;;;;;4976513;28;20031;-84
2021/07/25 02:42:29;;;;;;;9.52;8.18;;;22.80;62.80;;;;;;4960138;28;20049;-86
2021/07/25 02:44:54;;;;;;;8.90;7.97;;;22.80;62.80;;;;;;4960681;28;20038;-85
2021/07/25 02:47:20;;;;;;;9.43;8.43;;;22.80;62.80;;;;;;4960194;28;20459;-86
2021/07/25 02:49:46;;;;;;;9.70;8.65;;;22.80;62.90;;;;;;4960334;28;20118;-85
2021/07/25 02:52:12;;;;;;;10.13;8.85;;;22.70;62.80;;;;;;4976970;28;20046;-87
2021/07/25 02:54:38;;;;;;;9.65;8.30;;;22.80;62.90;;;;;;4977243;28;20060;-85
2021/07/25 02:57:04;;;;;;;8.95;7.75;;;22.70;62.90;;;;;;4977242;28;20110;-86
2021/07/25 02:59:30;;;;;;;9.50;7.93;;;22.70;62.90;;;;;;4976698;28;20027;-86
2021/07/25 03:01:57;;;;;;;8.85;7.88;;;22.70;63.00;;;;;;4944966;28;20159;-86
2021/07/25 03:04:23;;;;;;;9.30;8.00;;;22.70;63.00;;;;;;4960560;28;20464;-86
2021/07/25 03:06:49;;;;;;;9.02;8.07;;;22.60;63.00;;;;;;4964590;28;20039;-84
2021/07/25 03:09:15;;;;;;;9.85;8.30;;;22.70;63.10;;;;;;4965536;28;20026;-85
2021/07/25 03:11:44;;;;;;;9.27;8.20;;;22.60;63.00;;;;;;4981373;28;20035;-85
2021/07/25 03:14:09;;;;;;;9.35;8.10;;;22.60;63.00;;;;;;4966519;28;20045;-85
2021/07/25 03:16:35;;;;;;;9.43;8.00;;;22.60;63.00;;;;;;4963273;28;20474;-86
2021/07/25 03:19:01;;;;;;;10.70;8.23;;;22.60;63.10;;;;;;4944005;28;20034;-86
2021/07/25 03:21:27;;;;;;;8.75;7.80;;;22.60;63.10;;;;;;4959874;28;20074;-86
2021/07/25 03:23:55;;;;;;;9.68;8.02;;;22.60;63.10;;;;;;4959665;28;20027;-85
2021/07/25 03:26:21;;;;;;;9.32;8.18;;;22.50;63.10;;;;;;4975102;28;20057;-85
2021/07/25 03:28:47;;;;;;;9.90;8.55;;;22.50;63.00;;;;;;4960413;28;20428;-83
2021/07/25 03:31:15;;;;;;;9.00;7.72;;;22.50;63.70;;;;;;4960212;28;20494;-84
2021/07/25 03:33:41;;;;;;;9.73;8.40;;;22.50;63.10;;;;;;4959027;28;20054;-84
2021/07/25 03:36:07;;;;;;;9.65;8.63;;;22.50;63.10;;;;;;4959276;28;20031;-85
2021/07/25 03:38:33;;;;;;;9.55;7.93;;;22.50;63.10;;;;;;4960124;28;20027;-85
2021/07/25 03:41:02;;;;;;;9.23;7.78;;;22.50;63.10;;;;;;4976510;28;20034;-86
2021/07/25 03:43:29;;;;;;;9.25;7.55;;;22.40;63.10;;;;;;4975889;28;20379;-85
2021/07/25 03:45:56;;;;;;;9.52;8.32;;;22.40;63.20;;;;;;4959457;28;20071;-87
2021/07/25 03:48:22;;;;;;;11.73;8.27;;;22.40;63.20;;;;;;4959346;28;20027;-85
2021/07/25 03:50:48;;;;;;;9.85;8.27;;;22.40;63.20;;;;;;4959094;28;20154;-86
2021/07/25 03:53:14;;;;;;;9.65;8.00;;;22.40;63.20;;;;;;4959907;28;20515;-85
2021/07/25 03:55:44;;;;;;;10.75;8.63;;;22.40;63.20;;;;;;4976087;28;20125;-88
2021/07/25 03:58:11;;;;;;;9.27;8.05;;;22.40;63.40;;;;;;4959058;28;20081;-85
2021/07/25 04:00:37;;;;;;;8.82;7.63;;;22.40;63.30;;;;;;4959195;28;20073;-85
2021/07/25 04:03:03;;;;;;;8.95;7.90;;;22.30;63.30;;;;;;4975444;28;20038;-85
2021/07/25 04:05:28;;;;;;;10.00;8.45;;;22.30;63.40;;;;;;4958747;28;20051;-84
2021/07/25 04:07:54;;;;;;;8.93;7.82;;;22.30;63.40;;;;;;4958654;28;20066;-85
2021/07/25 04:10:21;;;;;;;9.68;8.57;;;22.30;63.40;;;;;;4958606;28;20082;-85
2021/07/25 04:12:48;;;;;;;9.45;8.13;;;22.30;63.40;;;;;;4958496;28;20464;-85
2021/07/25 04:15:14;;;;;;;9.15;8.00;;;22.30;63.40;;;;;;4975691;28;20035;-85
2021/07/25 04:17:40;;;;;;;9.05;7.97;;;22.30;63.40;;;;;;4958582;28;20027;-85
2021/07/25 04:20:07;;;;;;;10.23;8.05;;;22.20;63.30;;;;;;4958538;28;20094;-86
2021/07/25 04:22:38;;;;;;;10.40;8.27;;;22.30;63.50;;;;;;4958490;28;20031;-85
2021/07/25 04:25:06;;;;;;;10.27;8.70;;;22.20;63.50;;;;;;4958203;28;20035;-86
2021/07/25 04:27:32;;;;;;;8.82;7.68;;;22.20;63.40;;;;;;4974289;28;20026;-85
2021/07/25 04:29:58;;;;;;;9.13;7.85;;;22.20;63.40;;;;;;4974426;28;20035;-85
2021/07/25 04:32:24;;;;;;;9.45;8.07;;;22.20;63.50;;;;;;4958346;28;20034;-85
2021/07/25 04:34:54;;;;;;;9.45;7.93;;;22.20;63.40;;;;;;4957844;28;20163;-86
2021/07/25 04:37:26;;;;;;;9.73;7.35;;;22.20;63.50;;;;;;4958361;28;20388;-86
2021/07/25 04:39:53;;;;;;;9.00;7.80;;;22.10;63.40;;;;;;4974995;28;20441;-86
2021/07/25 04:42:22;;;;;;;8.98;7.43;;;22.10;63.40;;;;;;4958223;28;20035;-85
2021/07/25 04:45:03;;;;;;;8.38;7.30;;;22.10;63.40;;;;;;4974048;28;20404;-85
2021/07/25 04:47:35;;;;;;;8.40;7.38;;;22.10;63.50;;;;;;4975227;28;20035;-85
2021/07/25 04:50:09;;;;;;;7.82;6.78;;;22.10;63.40;;;;;;4975910;28;20494;-86
2021/07/25 04:52:41;;;;;;;7.90;6.72;;;22.10;63.40;;;;;;4975730;28;20027;-87
2021/07/25 04:55:14;;;;;;;8.10;6.97;;;22.10;63.40;;;;;;4974535;28;20053;-85
2021/07/25 04:57:42;;;;;;;8.30;6.93;;;22.10;63.50;;;;;;4959011;28;20054;-86
2021/07/25 05:00:13;;;;;;;7.88;6.90;;;22.00;63.40;;;;;;4957883;28;20054;-84
2021/07/25 05:02:41;;;;;;;8.75;6.97;;;22.10;63.40;;;;;;4957989;28;20034;-86
2021/07/25 05:05:08;;;;;;;8.13;7.03;;;22.00;63.40;;;;;;4974069;28;20039;-86
2021/07/25 05:07:38;;;;;;;7.38;6.50;;;22.00;63.40;;;;;;4974692;28;20063;-85
2021/07/25 05:10:08;;;;;;;7.95;6.80;;;22.00;63.40;;;;;;4975009;28;20027;-85
2021/07/25 05:12:58;;;;;;;7.72;6.45;;;22.00;63.40;;;;;;4974273;28;20023;-86
2021/07/25 05:15:44;;;;;;;7.10;6.10;;;22.00;63.40;;;;;;4957815;28;20065;-84
2021/07/25 05:18:23;;;;;;;8.23;7.03;;;22.00;63.40;;;;;;4974209;28;20564;-85
2021/07/25 05:21:20;;;;;;;7.78;6.82;;;22.00;63.40;;;;;;4974803;28;20023;-87
2021/07/25 05:23:49;;;;;;;7.43;5.93;;;22.00;63.40;;;;;;4970050;28;20049;-84
2021/07/25 05:26:16;;;;;;;7.28;6.20;;;22.00;63.40;;;;;;4957996;28;20031;-85
2021/07/25 05:28:43;;;;;;;6.63;5.50;;;22.00;63.40;;;;;;4958105;28;20360;-84
2021/07/25 05:31:09;;;;;;;7.10;5.88;;;22.00;63.40;;;;;;4958191;28;20054;-84
2021/07/25 05:33:35;;;;;;;7.43;6.15;;;22.00;63.40;;;;;;4958608;28;20101;-86
2021/07/25 05:36:02;;;;;;;6.57;5.60;;;22.00;63.40;;;;;;4958200;28;20035;-85
2021/07/25 05:38:27;;;;;;;6.78;5.45;;;22.00;63.50;;;;;;4957814;28;20037;-87
2021/07/25 05:40:53;;;;;;;6.90;5.75;;;22.00;63.40;;;;;;4974284;28;20035;-85
2021/07/25 05:43:19;;;;;;;7.15;5.78;;;22.00;63.40;;;;;;4958467;28;20069;-85
2021/07/25 05:45:45;;;;;;;7.00;5.53;;;22.00;63.40;;;;;;4957835;28;20038;-85
2021/07/25 05:48:12;;;;;;;6.30;5.03;;;22.00;63.40;;;;;;4957855;28;20034;-84
2021/07/25 05:50:40;;;;;;;6.85;5.63;;;22.00;63.40;;;;;;4976688;28;20046;-84
2021/07/25 05:53:08;;;;;;;6.90;5.32;;;22.00;63.40;;;;;;4961216;28;20035;-85
2021/07/25 05:55:34;;;;;;;6.70;5.38;;;22.00;63.50;;;;;;4977309;28;20035;-85
2021/07/25 05:58:00;;;;;;;5.80;5.10;;;22.00;64.10;;;;;;4960959;28;20046;-83
2021/07/25 06:00:26;;;;;;;6.60;5.07;;;22.00;63.50;;;;;;4976561;28;20035;-87
2021/07/25 06:02:57;;;;;;;5.50;4.53;;;22.00;63.50;;;;;;4960444;28;20037;-82
2021/07/25 06:05:26;;;;;;;6.18;4.82;;;22.00;63.50;;;;;;4959766;28;20491;-80
2021/07/25 06:07:55;;;;;;;6.75;5.18;;;22.00;63.50;;;;;;4976515;28;20043;-82
2021/07/25 06:10:23;;;;;;;6.10;4.63;;;22.00;63.60;;;;;;4976492;28;20034;-79
2021/07/25 06:12:51;;;;;;;6.78;5.38;;;22.00;63.60;;;;;;4960243;28;20113;-79
2021/07/25 06:15:18;;;;;;;5.93;4.55;;;22.00;63.60;;;;;;4976052;28;20039;-80
2021/07/25 06:17:44;;;;;;;6.05;4.85;;;22.00;63.60;;;;;;4959558;28;20047;-81
2021/07/25 06:20:11;;;;;;;6.72;4.63;;;22.10;63.60;;;;;;4960706;28;20375;-82
2021/07/25 06:22:37;;;;;;;5.60;4.38;;;22.10;63.70;;;;;;4944075;28;20031;-78
2021/07/25 06:25:04;;;;;;;4.82;3.90;;;22.10;63.70;;;;;;4976742;28;20423;-78
2021/07/25 06:27:29;;;;;;;5.50;4.43;;;22.10;63.70;;;;;;4975105;28;20416;-79
2021/07/25 06:29:55;;;;;;;5.30;4.13;;;22.10;63.70;;;;;;4976695;28;20034;-81
2021/07/25 06:32:21;;;;;;;5.50;4.30;;;22.10;63.60;;;;;;4959945;28;20159;-79
2021/07/25 06:34:47;;;;;;;5.38;4.20;;;22.20;63.70;;;;;;4960040;28;20082;-79
2021/07/25 06:37:12;;;;;;;5.20;4.00;;;22.10;63.60;;;;;;4959567;28;20085;-79
2021/07/25 06:39:38;;;;;;;5.80;4.18;;;22.20;63.60;;;;;;4959891;28;20042;-79
2021/07/25 06:42:04;;;;;;;5.18;3.95;;;22.20;63.60;;;;;;4959636;28;20023;-79
2021/07/25 06:44:29;;;;;;;6.00;4.55;;;22.20;63.70;;;;;;4975532;28;20061;-79
2021/07/25 06:46:55;;;;;;;5.22;3.97;;;22.20;63.60;;;;;;4959783;28;20034;-79
2021/07/25 06:49:21;;;;;;;5.70;4.03;;;22.30;63.70;;;;;;4975206;28;20031;-78
2021/07/25 06:51:47;;;;;;;5.28;4.10;;;22.30;63.70;;;;;;4959508;28;20540;-79
2021/07/25 06:54:14;;;;;;;4.70;3.45;;;22.30;63.70;;;;;;4975243;28;20031;-80
2021/07/25 06:56:39;;;;;;;5.90;4.22;;;22.30;63.70;;;;;;4959328;28;20066;-80
2021/07/25 06:59:05;;;;;;;5.90;4.32;;;22.30;63.70;;;;;;4959705;28;20064;-78
2021/07/25 07:01:31;;;;;;;4.65;3.67;;;22.40;63.70;;;;;;4976304;28;20039;-79
2021/07/25 07:03:56;;;;;;;5.25;4.10;;;22.40;63.60;;;;;;4961187;28;20070;-78
2021/07/25 07:06:22;;;;;;;5.15;3.95;;;22.40;63.70;;;;;;4959578;28;20125;-79
2021/07/25 07:08:48;;;;;;;4.93;3.78;;;22.40;63.60;;;;;;4959339;28;20506;-79
2021/07/25 07:11:13;;;;;;;4.85;3.75;;;22.50;63.70;;;;;;4959117;28;20081;-80
2021/07/25 07:13:39;;;;;;;4.75;3.70;;;22.40;63.60;;;;;;4975942;28;20109;-79
2021/07/25 07:16:05;;;;;;;5.03;3.58;;;22.50;63.70;;;;;;4975717;28;20027;-79
2021/07/25 07:18:31;;;;;;;4.78;3.75;;;22.50;63.70;;;;;;4958679;28;20064;-79
2021/07/25 07:20:56;;;;;;;4.78;3.58;;;22.50;64.30;;;;;;4958844;28;20031;-80
2021/07/25 07:23:24;;;;;;;4.38;3.38;;;22.50;63.70;;;;;;4975229;28;20464;-78
2021/07/25 07:25:51;;;;;;;4.88;3.80;;;22.50;63.70;;;;;;4959058;28;20463;-80
2021/07/25 07:28:19;;;;;;;5.18;3.50;;;22.60;63.70;;;;;;4958664;28;20470;-79
2021/07/25 07:30:47;;;;;;;5.70;3.28;;;22.60;63.80;;;;;;4974873;28;20104;-78
2021/07/25 07:33:21;;;;;;;4.25;3.35;;;22.60;63.80;;;;;;4974596;28;20042;-77
2021/07/25 07:35:47;;;;;;;4.70;3.30;;;22.60;63.80;;;;;;4959302;28;20038;-77
2021/07/25 07:38:15;;;;;;;4.75;3.45;;;22.60;63.80;;;;;;4958504;28;20065;-79
2021/07/25 07:40:43;;;;;;;4.97;3.72;;;22.60;63.70;;;;;;4958690;28;20074;-78
2021/07/25 07:43:10;;;;;;;3.58;2.90;;;22.60;63.70;;;;;;4958533;28;20413;-77
2021/07/25 07:45:37;;;;;;;4.05;3.25;;;22.70;63.80;;;;;;4958203;28;20129;-78
2021/07/25 07:48:03;;;;;;;3.92;3.08;;;22.70;63.80;;;;;;4957946;28;20090;-78
2021/07/25 07:50:29;;;;;;;4.28;3.17;;;22.70;63.70;;;;;;4974222;28;20435;-79
2021/07/25 07:52:55;;;;;;;4.05;3.28;;;22.80;63.70;;;;;;4958497;28;20094;-78
2021/07/25 07:55:21;;;;;;;4.28;3.10;;;22.80;63.60;;;;;;4958079;28;20472;-78
2021/07/25 07:57:47;;;;;;;3.95;3.15;;;22.80;63.50;;;;;;4958252;28;20042;-79
2021/07/25 08:00:13;;;;;;;5.10;3.30;;;22.80;63.50;;;;;;4974134;28;20022;-78
2021/07/25 08:02:41;;;;;;;4.55;3.35;;;22.90;63.50;;;;;;4958230;28;20035;-79
2021/07/25 08:05:08;;;;;;;4.22;3.10;;;23.00;63.40;;;;;;4957921;28;20471;-79
2021/07/25 08:07:33;;;;;;;4.72;3.33;;;23.00;63.30;;;;;;4958078;28;20026;-78
2021/07/25 08:09:59;;;;;;;4.25;3.20;;;23.00;63.30;;;;;;4957444;28;20038;-78
2021/07/25 08:12:25;;;;;;;3.72;2.78;;;23.10;63.20;;;;;;4957935;28;20372;-80
2021/07/25 08:14:51;;;;;;;3.22;2.47;;;23.10;63.10;;;;;;4957398;28;20435;-78
2021/07/25 08:17:17;;;;;;;4.28;2.78;;;23.20;63.10;;;;;;4973815;28;20035;-79
2021/07/25 08:19:43;;;;;;;3.75;2.78;;;23.20;63.00;;;;;;4957229;28;20387;-79
2021/07/25 08:22:10;;;;;;;4.13;3.10;;;23.30;62.90;;;;;;4957438;28;20046;-79
2021/07/25 08:24:38;;;;;;;3.55;2.63;;;23.40;62.80;;;;;;4973005;28;20038;-79
2021/07/25 08:27:06;;;;;;;3.88;2.97;;;23.40;62.70;;;;;;4957660;28;20144;-79
2021/07/25 08:29:32;;;;;;;3.78;2.50;;;23.50;62.70;;;;;;4974851;28;20023;-79
2021/07/25 08:31:59;;;;;;;3.90;2.80;;;23.60;62.60;;;;;;4973447;28;20041;-79
2021/07/25 08:34:25;;;;;;;4.35;2.63;;;23.60;62.50;;;;;;4973219;28;20051;-79
2021/07/25 08:36:51;;;;;;;3.63;2.80;;;23.70;62.40;;;;;;4957539;28;20031;-78
2021/07/25 08:39:17;;;;;;;4.10;2.67;;;23.80;62.40;;;;;;4973339;28;20030;-79
2021/07/25 08:42:06;;;;;;;3.25;2.53;;;23.80;62.30;;;;;;4956438;28;20034;-79
2021/07/25 08:44:57;;;;;;;3.85;2.58;;;23.90;62.40;;;;;;4974987;28;20031;-80
2021/07/25 08:47:26;;;;;;;3.90;2.85;;;24.00;62.20;;;;;;4973895;28;20122;-79
2021/07/25 08:49:57;;;;;;;3.88;2.78;;;24.10;62.10;;;;;;4974148;28;20374;-78
2021/07/25 08:52:36;;;;;;;3.00;2.50;;;24.20;62.20;;;;;;4973790;28;20030;-81
2021/07/25 08:55:11;;;;;;;2.97;2.20;;;24.20;62.10;;;;;;4957836;28;20069;-79
2021/07/25 08:57:39;;;;;;;3.63;2.65;;;24.30;62.10;;;;;;4956869;28;20030;-79
2021/07/25 09:00:08;;;;;;;2.83;2.10;;;24.40;61.90;;;;;;4973149;28;20031;-80
2021/07/25 09:02:34;;;;;;;3.90;2.70;;;24.40;61.90;;;;;;4974814;28;20535;-79
2021/07/25 09:05:00;;;;;;;3.50;2.60;;;24.50;61.80;;;;;;4957039;28;20023;-78
2021/07/25 09:07:29;;;;;;;3.25;2.33;;;24.60;61.80;;;;;;4973026;28;20035;-81
2021/07/25 09:10:01;;;;;;;3.13;2.35;;;24.60;61.80;;;;;;4957101;28;20379;-80
2021/07/25 09:12:28;;;;;;;3.42;2.47;;;24.70;61.80;;;;;;4957151;28;20082;-81
2021/07/25 09:14:58;;;;;;;3.78;2.80;;;24.80;61.70;;;;;;4974059;28;20035;-83
2021/07/25 09:17:24;;;;;;;3.15;2.25;;;24.90;61.70;;;;;;4957130;28;20073;-80
2021/07/25 09:20:12;;;;;;;3.45;2.33;;;24.90;61.50;;;;;;4973235;28;20059;-79
2021/07/25 09:22:48;;;;;;;3.65;2.40;;;25.00;61.70;;;;;;4973051;28;20062;-84
2021/07/25 09:25:20;;;;;;;3.05;2.30;;;25.10;61.40;;;;;;4974582;28;20035;-79
2021/07/25 09:27:46;;;;;;;2.53;1.92;;;25.20;61.50;;;;;;4976927;28;20062;-80
2021/07/25 09:30:19;;;;;;;5.10;2.58;;;25.30;61.40;;;;;;4944254;28;20035;-80
2021/07/25 09:32:46;;;;;;;2.90;2.28;;;25.30;61.40;;;;;;4960554;28;20066;-83
2021/07/25 09:35:24;;;;;;;3.10;2.15;;;25.50;61.50;;;;;;4959999;28;20057;-80
2021/07/25 09:37:51;;;;;;;3.03;2.30;;;25.60;61.70;;;;;;4976323;28;20058;-79
2021/07/25 09:40:38;;;;;;;3.35;2.42;;;25.70;61.40;;;;;;4960647;28;20031;-81
2021/07/25 09:43:16;;;;;;;3.33;2.08;;;25.80;61.60;;;;;;4976796;28;20437;-81
2021/07/25 09:45:53;;;;;;;3.53;2.25;;;25.90;61.40;;;;;;4976773;28;20131;-82
2021/07/25 09:48:20;;;;;;;3.60;2.28;;;25.90;61.30;;;;;;4977643;28;20045;-79
2021/07/25 09:50:47;;;;;;;2.95;2.10;;;26.00;61.20;;;;;;4960188;28;20062;-81
2021/07/25 09:53:13;;;;;;;2.63;2.00;;;26.10;61.20;;;;;;4976440;28;20046;-80
2021/07/25 09:55:38;;;;;;;2.78;2.20;;;26.20;61.20;;;;;;4977510;28;20031;-81
2021/07/25 09:58:05;;;;;;;3.53;2.53;;;26.30;61.20;;;;;;4977091;28;20449;-80
2021/07/25 10:00:41;;;;;;;2.67;2.10;;;26.40;61.20;;;;;;4960350;28;20444;-80
2021/07/25 10:03:22;;;;;;;2.70;2.00;;;26.50;61.20;;;;;;4976891;28;20428;-79
2021/07/25 10:05:48;;;;;;;3.42;2.53;;;26.60;61.20;;;;;;4975861;28;20489;-79
2021/07/25 10:08:16;;;;;;;3.75;2.22;;;26.70;60.90;;;;;;4976162;28;20030;-81
2021/07/25 10:10:44;;;;;;;3.28;2.15;;;26.80;60.90;;;;;;4977476;28;20030;-80
2021/07/25 10:13:32;;;;;;;3.08;2.38;;;26.90;60.90;;;;;;4959784;28;20027;-79
2021/07/25 10:16:00;;;;;;;3.10;2.13;;;27.00;60.80;;;;;;4976081;28;20035;-78
2021/07/25 10:18:27;;;;;;;2.80;2.13;;;27.10;60.60;;;;;;4976722;28;20400;-80
2021/07/25 10:21:00;;;;;;;3.33;2.33;;;27.10;60.50;;;;;;4960694;28;20023;-79
2021/07/25 10:23:36;;;;;;;3.15;2.20;;;27.20;60.50;;;;;;4960086;28;20112;-82
2021/07/25 10:26:03;;;;;;;2.67;2.10;;;27.20;60.40;;;;;;4976461;28;20113;-85
2021/07/25 10:28:34;;;;;;;2.88;2.00;;;27.30;60.40;;;;;;4960062;28;20027;-85
2021/07/25 10:31:00;;;;;;;3.08;2.28;;;27.30;60.20;;;;;;4960465;28;20034;-81
2021/07/25 10:33:30;;;;;;;3.13;2.28;;;27.40;60.20;;;;;;4976561;28;20042;-81
2021/07/25 10:35:57;;;;;;;3.72;2.20;;;27.50;60.30;;;;;;4960305;28;20125;-81
2021/07/25 10:38:23;;;;;;;3.05;2.30;;;27.50;60.20;;;;;;4960073;28;20546;-81
2021/07/25 10:40:50;;;;;;;2.97;2.28;;;27.60;60.30;;;;;;4975430;28;20395;-80
2021/07/25 10:43:23;;;;;;;2.90;2.25;;;27.60;60.30;;;;;;4959711;28;20027;-82
2021/07/25 10:46:16;;;;;;;3.05;2.22;;;27.70;60.40;;;;;;4959839;28;20406;-81
2021/07/25 10:49:00;;;;;;;2.58;2.08;;;27.70;60.40;;;;;;4977061;28;20092;-82
2021/07/25 10:51:26;;;;;;;2.90;2.30;;;27.80;60.30;;;;;;4975674;28;20053;-82
2021/07/25 10:53:52;;;;;;;2.92;2.10;;;27.80;60.10;;;;;;4959548;28;20062;-82
2021/07/25 10:56:58;;;;;;;2.92;2.17;;;27.90;60.10;;;;;;4975441;28;20480;-82
2021/07/25 10:59:38;;;;;;;2.50;2.05;;;27.90;60.20;;;;;;4975321;28;20038;-82
2021/07/25 11:02:04;;;;;;;2.53;1.90;;;28.00;60.20;;;;;;4976670;28;20038;-83
2021/07/25 11:05:03;;;;;;;3.63;2.50;;;28.00;60.10;;;;;;4975296;28;20476;-83
2021/07/25 11:07:35;;;;;;;3.20;2.30;;;28.00;60.20;;;;;;4954081;28;20492;-83
2021/07/25 11:10:06;;;;;;;3.45;2.45;;;28.10;60.00;;;;;;4975259;28;20039;-82
2021/07/25 11:12:55;;;;;;;3.25;2.45;;;28.10;60.00;;;;;;4959202;28;20058;-82
2021/07/25 11:15:33;;;;;;;3.28;2.50;;;28.10;60.10;;;;;;4977095;28;20026;-82
2021/07/25 11:17:59;;;;;;;3.03;2.30;;;28.20;60.00;;;;;;4976807;28;20034;-82
2021/07/25 11:20:35;;;;;;;2.90;2.30;;;28.20;60.00;;;;;;4976393;28;20042;-81
2021/07/25 11:23:03;;;;;;;3.72;2.45;;;28.20;60.00;;;;;;4958704;28;20090;-82
2021/07/25 11:25:37;;;;;;;3.42;2.45;;;28.30;60.10;;;;;;4958702;28;20049;-81
2021/07/25 11:28:08;;;;;;;2.65;2.10;;;28.20;60.10;;;;;;4958700;28;20046;-82
2021/07/25 11:30:49;;;;;;;3.20;2.33;;;28.30;60.20;;;;;;4974622;28;20427;-81
2021/07/25 11:33:40;;;;;;;3.35;2.53;;;28.30;60.20;;;;;;4974754;28;20026;-83
2021/07/25 11:36:13;;;;;;;3.67;2.17;;;28.30;60.20;;;;;;4975073;28;20038;-82
2021/07/25 11:38:39;;;;;;;3.72;2.47;;;28.40;60.20;;;;;;4942420;28;20123;-82
2021/07/25 11:41:06;;;;;;;3.25;2.33;;;28.40;60.30;;;;;;4958909;28;20169;-82
2021/07/25 11:43:54;;;;;;;3.67;2.70;;;28.40;60.20;;;;;;4958535;28;20030;-82
2021/07/25 11:46:39;;;;;;;3.53;2.40;;;28.40;60.40;;;;;;4974779;28;20114;-82
2021/07/25 11:49:12;;;;;;;3.75;2.60;;;28.50;60.20;;;;;;4974186;28;20031;-82
2021/07/25 11:51:58;;;;;;;3.65;2.55;;;28.40;60.20;;;;;;4958391;28;20038;-82
2021/07/25 11:54:35;;;;;;;2.90;2.25;;;28.40;60.20;;;;;;4958440;28;20039;-83
2021/07/25 11:57:07;;;;;;;4.10;2.42;;;28.50;60.30;;;;;;4975208;28;20037;-83
2021/07/25 11:59:48;;;;;;;3.22;2.33;;;28.50;60.30;;;;;;4958499;28;20046;-83
2021/07/25 12:02:20;;;;;;;3.10;2.25;;;28.50;60.30;;;;;;4958697;28;20125;-82
2021/07/25 12:04:46;;;;;;;3.25;2.40;;;28.60;60.30;;;;;;4975383;28;20042;-83
2021/07/25 12:07:16;;;;;;;3.70;2.55;;;28.60;60.40;;;;;;4958244;28;20396;-82
2021/07/25 12:09:47;;;;;;;2.97;2.30;;;28.60;60.50;;;;;;4958503;28;20026;-81
2021/07/25 12:12:22;;;;;;;3.40;2.42;;;28.60;60.70;;;;;;4958492;28;20037;-82
2021/07/25 12:14:49;;;;;;;2.63;2.25;;;28.60;60.80;;;;;;4974310;28;20188;-82
2021/07/25 12:17:44;;;;;;;2.63;2.17;;;28.60;60.80;;;;;;4974971;28;20023;-81
2021/07/25 12:20:13;;;;;;;3.17;2.35;;;28.70;60.90;;;;;;4974131;28;20038;-83
2021/07/25 12:22:49;;;;;;;3.15;2.25;;;28.70;60.70;;;;;;4941960;28;20036;-82
2021/07/25 12:25:15;;;;;;;3.13;2.13;;;28.70;60.70;;;;;;4974814;28;20042;-83
2021/07/25 12:27:41;;;;;;;2.22;1.98;;;28.70;60.50;;;;;;4975054;28;20031;-82
2021/07/25 12:30:11;;;;;;;2.70;2.05;;;28.70;60.50;;;;;;4973887;28;20030;-81
2021/07/25 12:32:37;;;;;;;3.97;2.88;;;28.70;60.40;;;;;;4973839;28;20026;-81
2021/07/25 12:35:09;;;;;;;3.40;2.30;;;28.80;60.40;;;;;;4975326;28;20144;-81
2021/07/25 12:37:51;;;;;;;3.30;2.38;;;28.80;60.40;;;;;;4974990;28;20035;-82
2021/07/25 12:40:31;;;;;;;2.92;2.13;;;28.80;60.30;;;;;;4974560;28;20113;-81
2021/07/25 12:42:57;;;;;;;2.95;2.00;;;28.80;60.20;;;;;;4974921;28;20490;-82
2021/07/25 12:45:33;;;;;;;2.65;1.92;;;28.80;60.20;;;;;;4973604;28;20117;-82
2021/07/25 12:48:08;;;;;;;2.88;2.10;;;28.80;60.20;;;;;;4974616;28;20503;-82
2021/07/25 12:50:55;;;;;;;3.13;2.15;;;28.80;60.20;;;;;;4974126;28;20046;-82
2021/07/25 12:53:32;;;;;;;2.80;2.20;;;28.80;60.20;;;;;;4958438;28;20049;-84
2021/07/25 12:55:58;;;;;;;2.42;1.92;;;28.80;60.10;;;;;;4974536;28;20081;-83
2021/07/25 12:58:31;;;;;;;2.55;2.00;;;28.80;60.10;;;;;;4957714;28;20121;-82